Time;durP1;ratioP1;P1;durP2;ratioP2;P2;SDS_P1;SDS_P2;PMS_P1;PMS_P2;Temp;Humidity;BMP_temperature;BMP_pressure;BME280_temperature;BME280_humidity;BME280_pressure;Samples;Min_cycle;Max_cycle;Signal;HPM_P1;HPM_P2
2022/02/06 00:03:21;;;;;;;16.40;8.40;;;;;;;3.27;62.93;99188.09;220972;1278;139487;-58
2022/02/06 00:08:24;;;;;;;17.20;8.40;;;;;;;3.25;62.99;99185.88;220830;1279;140250;-60
2022/02/06 00:13:27;;;;;;;20.90;8.30;;;;;;;3.23;63.01;99181.02;220788;1279;140588;-59
2022/02/06 00:18:30;;;;;;;21.40;9.50;;;;;;;3.18;62.78;99179.09;220521;1280;139501;-57
2022/02/06 00:23:34;;;;;;;17.40;8.70;;;;;;;3.16;62.89;99170.18;220795;1279;140423;-59
2022/02/06 00:28:45;;;;;;;18.30;9.10;;;;;;;3.18;62.74;99167.84;220790;1277;139445;-58
2022/02/06 00:39:06;;;;;;;18.80;8.90;;;;;;;3.29;62.63;99145.27;220819;1279;139120;-60
2022/02/06 00:44:09;;;;;;;19.00;8.10;;;;;;;3.29;62.70;99147.35;220983;1277;138605;-59
2022/02/06 00:49:16;;;;;;;15.30;8.20;;;;;;;3.26;62.61;99141.84;220920;1280;138891;-58
2022/02/06 00:54:19;;;;;;;15.90;7.30;;;;;;;3.24;62.49;99136.30;220825;1277;139988;-57
2022/02/06 00:59:22;;;;;;;16.80;7.20;;;;;;;3.23;62.19;99127.23;220690;1279;139824;-56
2022/02/06 01:04:28;;;;;;;15.10;6.50;;;;;;;3.22;62.30;99115.30;220882;1277;138965;-56
2022/02/06 01:09:31;;;;;;;12.00;5.70;;;;;;;3.20;61.97;99107.65;221018;1279;141264;-56
2022/02/06 01:19:48;;;;;;;13.30;5.10;;;;;;;3.23;62.24;99093.89;220342;1279;140376;-57
2022/02/06 01:30:11;;;;;;;10.20;4.80;;;;;;;3.23;62.00;99081.11;221007;1277;139202;-56
2022/02/06 01:35:19;;;;;;;9.20;4.40;;;;;;;3.17;61.55;99072.34;221019;1277;139135;-54
2022/02/06 01:41:26;;;;;;;11.20;4.20;;;;;;;3.13;61.76;99065.48;220908;1280;139147;-57
2022/02/06 02:02:08;;;;;;;9.50;4.00;;;;;;;3.20;61.48;99032.79;221022;1278;139798;-56
2022/02/06 02:07:37;;;;;;;8.70;3.70;;;;;;;3.26;61.38;99019.30;220700;1279;139161;-56
2022/02/06 02:23:36;;;;;;;6.80;3.70;;;;;;;3.37;61.17;98992.46;220863;1279;138300;-57
2022/02/06 02:49:41;;;;;;;7.50;3.00;;;;;;;3.46;60.86;98947.94;220745;1279;138626;-56
2022/02/06 02:54:49;;;;;;;5.60;3.00;;;;;;;3.49;60.77;98952.40;220551;1279;139221;-59
2022/02/06 03:00:21;;;;;;;7.40;3.30;;;;;;;3.55;60.66;98950.25;221003;1277;139690;-57
2022/02/06 03:05:26;;;;;;;7.60;3.20;;;;;;;3.57;60.69;98941.27;220562;1280;138794;-57
2022/02/06 03:10:31;;;;;;;7.80;3.00;;;;;;;3.55;60.45;98934.45;220804;1280;141170;-57
2022/02/06 03:20:41;;;;;;;7.60;3.30;;;;;;;3.60;60.44;98926.95;220571;1280;139245;-55
2022/02/06 03:25:49;;;;;;;6.70;3.00;;;;;;;3.62;60.25;98917.07;220674;1279;139325;-56
2022/02/06 03:30:52;;;;;;;5.50;2.80;;;;;;;3.62;60.35;98905.85;220875;1278;138815;-57
2022/02/06 03:35:55;;;;;;;6.90;3.00;;;;;;;3.60;60.24;98900.45;220599;1279;139529;-56
2022/02/06 03:41:06;;;;;;;5.30;2.70;;;;;;;3.61;60.25;98894.44;220868;1280;138708;-56
2022/02/06 03:46:37;;;;;;;7.10;2.90;;;;;;;3.66;60.35;98894.45;220765;1279;138819;-56
2022/02/06 03:51:34;;;;;;;4.00;2.20;;;;;;;3.70;60.26;98887.64;220845;1279;139479;-57
2022/02/06 03:56:39;;;;;;;6.20;2.50;;;;;;;3.72;60.10;98876.70;220916;1277;139066;-57
2022/02/06 04:01:42;;;;;;;9.20;2.70;;;;;;;3.78;60.21;98866.13;220790;1279;139750;-57
2022/02/06 04:06:46;;;;;;;5.10;2.40;;;;;;;3.80;60.13;98850.76;220767;1279;138555;-57
2022/02/06 04:11:52;;;;;;;4.80;2.30;;;;;;;3.82;59.95;98838.95;220830;1280;138762;-56
2022/02/06 04:17:00;;;;;;;7.80;2.60;;;;;;;3.84;60.22;98825.19;220813;1278;139547;-57
2022/02/06 04:22:03;;;;;;;7.60;2.70;;;;;;;3.85;60.09;98817.77;220733;1279;138582;-57
2022/02/06 04:27:06;;;;;;;6.70;2.50;;;;;;;3.85;60.12;98810.21;220863;1277;138624;-58
2022/02/06 04:32:09;;;;;;;4.10;2.40;;;;;;;3.86;60.13;98806.69;221102;1277;138535;-58
2022/02/06 05:35:07;;;;;;;5.40;1.80;;;;;;;4.09;60.51;98762.25;220575;1277;138880;-56
2022/02/06 05:40:11;;;;;;;3.90;2.10;;;;;;;3.99;60.92;98755.63;220820;1279;139130;-56
2022/02/06 05:45:18;;;;;;;4.70;2.00;;;;;;;3.85;61.29;98745.11;220637;1278;139484;-56
2022/02/06 05:50:23;;;;;;;4.60;2.20;;;;;;;3.79;61.84;98742.20;220685;1280;140918;-56
2022/02/06 05:55:26;;;;;;;7.20;2.20;;;;;;;3.73;62.44;98737.33;220818;1279;139947;-57
2022/02/06 06:00:29;;;;;;;5.50;2.10;;;;;;;3.63;62.64;98732.66;220667;1280;138730;-55
2022/02/06 06:05:33;;;;;;;6.30;2.10;;;;;;;3.52;63.11;98736.20;220513;1279;139208;-55
2022/02/06 06:10:37;;;;;;;4.40;2.00;;;;;;;3.43;63.56;98727.11;221005;1277;138846;-56
2022/02/06 06:15:40;;;;;;;5.00;2.00;;;;;;;3.35;63.62;98724.80;220609;1279;138501;-56
2022/02/06 06:20:45;;;;;;;4.20;1.60;;;;;;;3.29;64.22;98719.77;220805;1279;139083;-57
2022/02/06 06:25:50;;;;;;;4.10;1.90;;;;;;;3.29;64.25;98715.16;220843;1279;151791;-57
2022/02/06 06:30:58;;;;;;;2.70;1.60;;;;;;;3.31;64.55;98700.58;220724;1278;138946;-56
2022/02/06 06:36:01;;;;;;;5.90;2.30;;;;;;;3.31;64.66;98691.10;220670;1279;139279;-59
2022/02/06 06:41:04;;;;;;;5.40;2.00;;;;;;;3.28;64.84;98685.94;220874;1279;139800;-58
2022/02/06 06:46:07;;;;;;;5.40;2.00;;;;;;;3.33;64.99;98688.04;220917;1280;140010;-56
2022/02/06 06:51:12;;;;;;;5.30;2.10;;;;;;;3.37;64.72;98681.56;220778;1277;139700;-57
2022/02/06 06:56:24;;;;;;;4.70;1.80;;;;;;;3.38;64.75;98672.95;220774;1279;138733;-58
2022/02/06 07:06:36;;;;;;;7.30;2.70;;;;;;;3.38;64.95;98670.81;220814;1279;140475;-56
2022/02/06 07:11:39;;;;;;;4.30;2.00;;;;;;;3.44;65.04;98668.69;220799;1279;138816;-55
2022/02/06 07:16:42;;;;;;;6.00;2.20;;;;;;;3.47;64.81;98655.20;221148;1277;139051;-55
2022/02/06 07:21:45;;;;;;;5.90;2.30;;;;;;;3.56;64.76;98644.36;220864;1278;139241;-56
2022/02/06 07:26:51;;;;;;;5.20;2.20;;;;;;;3.63;64.65;98631.11;220670;1277;139078;-56
2022/02/06 07:31:56;;;;;;;6.60;2.00;;;;;;;3.66;64.36;98614.98;220792;1279;140422;-54
2022/02/06 07:36:59;;;;;;;5.50;2.00;;;;;;;3.75;64.46;98612.17;220566;1280;138833;-55
2022/02/06 07:42:03;;;;;;;3.40;1.80;;;;;;;3.87;64.33;98602.36;220712;1280;139128;-57
2022/02/06 07:47:22;;;;;;;6.30;2.40;;;;;;;3.98;64.12;98595.57;220624;1280;138692;-56
2022/02/06 07:52:26;;;;;;;4.50;2.30;;;;;;;4.11;63.99;98594.88;220716;1279;138691;-57
2022/02/06 07:57:29;;;;;;;15.10;9.60;;;;;;;4.23;63.88;98591.20;220744;1279;139080;-58
2022/02/06 08:02:32;;;;;;;5.50;2.30;;;;;;;4.43;63.66;98580.29;220760;1279;139146;-59
2022/02/06 08:07:36;;;;;;;5.80;2.10;;;;;;;4.54;63.19;98577.52;220260;1280;139133;-59
2022/02/06 08:12:52;;;;;;;4.00;2.30;;;;;;;4.61;62.86;98567.73;220790;1279;139828;-60
2022/02/06 08:17:55;;;;;;;4.40;2.30;;;;;;;4.64;62.95;98567.91;220905;1279;138702;-59
2022/02/06 08:22:59;;;;;;;18.40;10.90;;;;;;;4.69;62.73;98573.32;220728;1279;138657;-59
2022/02/06 08:28:02;;;;;;;5.90;2.80;;;;;;;4.78;62.74;98574.85;220938;1279;139143;-58
2022/02/06 08:33:05;;;;;;;7.20;2.30;;;;;;;4.84;62.55;98571.23;220906;1277;141466;-57
2022/02/06 08:38:10;;;;;;;5.30;1.90;;;;;;;4.87;62.36;98580.25;220888;1277;140018;-58
2022/02/06 08:43:13;;;;;;;6.70;2.10;;;;;;;4.85;62.28;98570.80;220712;1279;140219;-57
2022/02/06 08:48:16;;;;;;;4.90;2.00;;;;;;;4.89;62.34;98571.67;220834;1279;139337;-58
2022/02/06 08:53:19;;;;;;;17.50;11.00;;;;;;;4.91;62.16;98575.28;220929;1277;139536;-57
2022/02/06 08:58:22;;;;;;;9.60;2.80;;;;;;;4.92;62.17;98582.98;220944;1279;139330;-55
2022/02/06 09:03:25;;;;;;;5.10;2.20;;;;;;;4.92;62.00;98581.21;220901;1279;140419;-55
2022/02/06 09:08:29;;;;;;;4.40;2.10;;;;;;;4.88;61.70;98578.41;220846;1278;139236;-55
2022/02/06 09:13:32;;;;;;;6.40;2.10;;;;;;;4.87;61.93;98569.88;220890;1279;138897;-55
2022/02/06 09:18:35;;;;;;;4.80;2.10;;;;;;;4.88;61.77;98570.36;221084;1277;138795;-56
2022/02/06 09:23:38;;;;;;;4.40;2.10;;;;;;;4.99;62.43;98564.39;220724;1279;138675;-57
2022/02/06 09:28:41;;;;;;;4.50;1.90;;;;;;;4.98;62.49;98556.49;220754;1279;138487;-57
2022/02/06 09:38:47;;;;;;;7.20;2.40;;;;;;;4.83;62.73;98541.94;220961;1277;138821;-62
2022/02/06 09:43:52;;;;;;;13.60;6.40;;;;;;;4.87;63.21;98529.27;220616;1279;138745;-59
2022/02/06 09:48:57;;;;;;;8.90;2.60;;;;;;;4.98;63.18;98520.65;220553;1279;139611;-59
2022/02/06 09:54:03;;;;;;;16.60;10.70;;;;;;;5.10;62.97;98504.98;220784;1277;140777;-57
2022/02/06 09:59:17;;;;;;;10.20;4.40;;;;;;;5.24;62.84;98492.99;220516;1280;138854;-59
2022/02/06 10:04:25;;;;;;;4.70;2.20;;;;;;;5.31;62.47;98481.09;220862;1277;138784;-58
2022/02/06 10:09:34;;;;;;;4.60;2.20;;;;;;;5.25;62.38;98478.41;220833;1277;138927;-59
2022/02/06 10:14:39;;;;;;;13.20;6.30;;;;;;;5.22;62.52;98476.42;220600;1278;139298;-59
2022/02/06 10:19:58;;;;;;;18.10;5.30;;;;;;;5.23;62.83;98469.13;220631;1280;139096;-59
2022/02/06 10:25:07;;;;;;;5.80;2.50;;;;;;;5.26;62.71;98459.86;220843;1277;139709;-59
2022/02/06 10:30:19;;;;;;;4.10;1.90;;;;;;;5.25;62.86;98466.42;220745;1279;139660;-56
2022/02/06 10:35:22;;;;;;;4.80;2.30;;;;;;;5.15;62.96;98451.95;220765;1277;139290;-60
2022/02/06 10:40:29;;;;;;;5.30;2.20;;;;;;;5.01;62.82;98439.83;220869;1279;138876;-59
2022/02/06 10:45:37;;;;;;;4.00;2.20;;;;;;;4.89;63.63;98436.36;220736;1279;138709;-60
2022/02/06 10:50:41;;;;;;;7.40;2.20;;;;;;;4.83;63.81;98423.85;220831;1278;139875;-59
2022/02/06 10:56:04;;;;;;;5.90;2.60;;;;;;;4.92;64.29;98409.99;220583;1279;139105;-57
2022/02/06 11:01:21;;;;;;;31.30;22.70;;;;;;;5.11;64.31;98398.53;220805;1277;139491;-57
2022/02/06 11:06:42;;;;;;;20.60;7.80;;;;;;;5.35;64.99;98384.82;220470;1280;139199;-59
2022/02/06 11:11:45;;;;;;;5.30;2.80;;;;;;;5.52;64.42;98371.30;219932;1282;140755;-59
2022/02/06 11:16:50;;;;;;;4.80;2.30;;;;;;;5.52;64.14;98360.88;220547;1279;139576;-60
2022/02/06 11:22:10;;;;;;;5.90;2.50;;;;;;;5.50;63.97;98352.08;220641;1278;138609;-60
2022/02/06 11:27:20;;;;;;;5.60;2.60;;;;;;;5.48;64.04;98340.00;220795;1277;140805;-60
2022/02/06 11:32:27;;;;;;;8.30;2.50;;;;;;;5.52;63.62;98317.84;220653;1277;139179;-60
2022/02/06 11:48:32;;;;;;;8.40;2.80;;;;;;;5.80;63.75;98299.37;220798;1278;139298;-59
2022/02/06 11:53:39;;;;;;;9.40;4.20;;;;;;;5.90;63.38;98293.94;220824;1280;138930;-59
2022/02/06 11:58:43;;;;;;;5.80;2.30;;;;;;;5.97;62.99;98286.02;220669;1280;139283;-58
2022/02/06 12:03:54;;;;;;;6.10;2.40;;;;;;;6.00;62.94;98277.56;220654;1279;138698;-59
2022/02/06 12:08:57;;;;;;;4.40;2.60;;;;;;;6.06;62.73;98278.80;220866;1277;139414;-59
2022/02/06 12:14:20;;;;;;;9.40;2.70;;;;;;;6.05;62.74;98275.88;220880;1277;139243;-59
2022/02/06 12:19:34;;;;;;;6.10;2.80;;;;;;;5.97;62.94;98270.33;220748;1277;139529;-59
2022/02/06 12:24:41;;;;;;;6.70;3.30;;;;;;;5.98;63.21;98270.99;220575;1278;139663;-58
2022/02/06 12:29:50;;;;;;;4.70;2.50;;;;;;;5.94;63.37;98270.30;220802;1278;140705;-59
2022/02/06 12:40:18;;;;;;;176.60;94.20;;;;;;;5.60;63.75;98268.79;221119;1278;138604;-56
2022/02/06 12:45:22;;;;;;;6.10;3.00;;;;;;;5.52;64.55;98255.17;221189;1279;139616;-57
2022/02/06 12:50:34;;;;;;;5.20;2.50;;;;;;;5.37;64.27;98255.08;220524;1280;139153;-58
2022/02/06 12:55:38;;;;;;;5.80;2.30;;;;;;;5.20;64.89;98245.80;220494;1280;138780;-59
2022/02/06 13:00:46;;;;;;;5.60;2.20;;;;;;;5.09;64.94;98243.39;220665;1277;139144;-57
2022/02/06 13:05:55;;;;;;;4.20;2.00;;;;;;;5.04;65.78;98240.51;220526;1280;140136;-59
2022/02/06 13:11:05;;;;;;;3.40;1.80;;;;;;;5.03;65.55;98224.00;220729;1279;138893;-59
2022/02/06 13:26:41;;;;;;;6.90;2.20;;;;;;;5.04;66.04;98181.46;220534;1280;138584;-59
2022/02/06 13:32:11;;;;;;;4.30;2.30;;;;;;;5.11;66.08;98168.39;220626;1279;139855;-57
2022/02/06 13:37:23;;;;;;;3.30;1.90;;;;;;;5.25;66.11;98149.36;220799;1279;139757;-60
2022/02/06 13:42:32;;;;;;;4.80;2.30;;;;;;;5.36;66.07;98141.00;220677;1279;138902;-59
2022/02/06 13:47:39;;;;;;;5.30;2.30;;;;;;;5.46;65.95;98139.19;220626;1279;139530;-59
2022/02/06 13:53:14;;;;;;;5.20;2.90;;;;;;;5.56;66.20;98139.70;220210;1279;138743;-60
2022/02/06 13:58:42;;;;;;;3.80;1.90;;;;;;;5.62;65.67;98133.55;219924;1279;139016;-60
2022/02/06 14:04:05;;;;;;;3.40;1.80;;;;;;;5.66;65.27;98144.58;220365;1279;139799;-56
2022/02/06 14:09:27;;;;;;;3.90;1.90;;;;;;;5.68;65.28;98140.63;220688;1279;139239;-56
2022/02/06 14:14:34;;;;;;;5.50;1.90;;;;;;;5.66;65.05;98112.57;220583;1279;139179;-58
2022/02/06 14:19:59;;;;;;;4.40;2.00;;;;;;;5.63;64.96;98104.29;220654;1279;139011;-59
2022/02/06 14:25:12;;;;;;;22.00;8.50;;;;;;;5.67;65.11;98103.39;219311;1277;2187463;-59
2022/02/06 14:30:25;;;;;;;4.60;1.90;;;;;;;5.72;64.72;98097.98;220767;1279;139028;-57
2022/02/06 14:35:44;;;;;;;4.20;2.00;;;;;;;5.70;64.66;98078.39;220867;1280;139734;-59
2022/02/06 14:45:52;;;;;;;3.50;2.00;;;;;;;5.68;64.61;98072.33;220568;1280;138563;-58
2022/02/06 14:51:00;;;;;;;5.50;2.20;;;;;;;5.69;64.32;98067.75;220323;1279;139103;-58
2022/02/06 14:56:04;;;;;;;9.00;4.20;;;;;;;5.71;64.86;98058.98;220765;1280;138972;-56
2022/02/06 15:01:10;;;;;;;4.10;2.30;;;;;;;5.77;64.36;98047.04;220603;1280;139031;-54
2022/02/06 15:06:13;;;;;;;5.20;2.50;;;;;;;5.78;64.01;98035.89;220619;1279;139609;-57
2022/02/06 15:11:16;;;;;;;5.10;2.60;;;;;;;5.80;64.25;98033.98;220676;1280;139099;-58
2022/02/06 15:16:24;;;;;;;4.10;2.40;;;;;;;5.80;63.87;98028.52;220889;1277;139531;-57
2022/02/06 15:21:27;;;;;;;5.00;2.00;;;;;;;5.82;63.88;98006.55;220781;1279;139678;-58
2022/02/06 15:26:33;;;;;;;4.90;2.50;;;;;;;5.81;64.02;97984.45;220798;1277;138675;-56
2022/02/06 15:31:41;;;;;;;16.80;12.10;;;;;;;5.81;64.02;97971.45;220638;1278;139540;-59
2022/02/06 15:36:53;;;;;;;15.80;8.50;;;;;;;5.99;64.91;97960.84;220701;1278;138848;-59
2022/02/06 15:41:56;;;;;;;7.70;3.30;;;;;;;6.32;64.54;97960.94;220650;1279;139821;-58
2022/02/06 15:46:59;;;;;;;6.90;2.90;;;;;;;6.34;63.81;97950.06;220570;1279;139570;-59
2022/02/06 15:52:08;;;;;;;5.80;2.50;;;;;;;6.29;63.17;97941.45;220605;1279;140175;-59
2022/02/06 15:57:11;;;;;;;6.40;2.90;;;;;;;6.17;62.88;97934.45;220474;1280;138735;-59
2022/02/06 16:02:14;;;;;;;8.20;3.20;;;;;;;6.08;62.95;97925.49;220553;1280;139014;-59
2022/02/06 16:07:19;;;;;;;8.60;2.80;;;;;;;6.03;63.11;97914.88;220699;1280;140585;-58
2022/02/06 16:12:23;;;;;;;78.30;46.60;;;;;;;6.09;63.61;97898.52;220439;1279;139124;-59
2022/02/06 16:17:26;;;;;;;11.60;5.20;;;;;;;6.34;63.81;97888.63;220783;1280;139521;-59
2022/02/06 16:22:29;;;;;;;5.50;3.20;;;;;;;6.39;63.02;97884.08;220633;1279;139270;-58
2022/02/06 16:27:32;;;;;;;8.10;3.10;;;;;;;6.33;62.61;97875.83;220619;1279;138390;-58
2022/02/06 16:33:50;;;;;;;7.00;3.00;;;;;;;6.30;62.42;97865.29;214457;1313;655043;-58
2022/02/06 16:38:53;;;;;;;8.50;2.80;;;;;;;6.26;62.29;97854.08;218341;1289;137996;-59
2022/02/06 16:43:56;;;;;;;6.90;2.90;;;;;;;6.28;62.46;97843.92;218336;1288;138063;-59
2022/02/06 16:49:00;;;;;;;6.80;3.10;;;;;;;6.25;62.16;97835.81;218957;1287;138055;-61
2022/02/06 16:54:03;;;;;;;45.70;31.80;;;;;;;6.26;62.49;97824.48;218529;1287;138615;-58
2022/02/06 16:59:07;;;;;;;9.40;3.60;;;;;;;6.51;63.23;97808.25;218545;1289;138493;-60
2022/02/06 17:04:10;;;;;;;7.90;3.50;;;;;;;6.67;62.48;97804.73;218590;1289;139165;-58
2022/02/06 17:09:14;;;;;;;5.80;3.10;;;;;;;6.65;62.07;97787.08;218632;1289;138841;-61
2022/02/06 17:14:18;;;;;;;5.40;2.30;;;;;;;6.60;61.85;97776.45;218548;1289;138865;-58
2022/02/06 17:19:21;;;;;;;6.60;2.50;;;;;;;6.58;61.90;97764.08;218627;1289;138407;-61
2022/02/06 17:24:27;;;;;;;5.70;3.00;;;;;;;6.55;62.10;97755.83;218366;1289;139316;-58
2022/02/06 17:29:30;;;;;;;5.90;2.30;;;;;;;6.54;61.93;97748.12;220817;1280;138699;-59
2022/02/06 17:34:33;;;;;;;4.90;2.30;;;;;;;6.51;61.87;97734.64;220369;1280;138131;-58
2022/02/06 17:39:36;;;;;;;4.80;2.50;;;;;;;6.45;61.87;97723.92;220225;1280;138370;-58
2022/02/06 17:44:40;;;;;;;8.20;2.80;;;;;;;6.45;61.97;97709.32;220092;1281;138655;-60
2022/02/06 17:49:44;;;;;;;4.80;2.60;;;;;;;6.45;61.84;97702.96;219893;1281;138039;-59
2022/02/06 17:54:48;;;;;;;4.40;2.60;;;;;;;6.48;61.91;97691.48;219909;1281;138610;-59
2022/02/06 17:59:54;;;;;;;5.00;2.40;;;;;;;6.50;61.84;97679.88;220143;1281;138656;-58
2022/02/06 18:04:57;;;;;;;4.90;2.40;;;;;;;6.50;61.46;97668.61;220272;1280;138122;-58
2022/02/06 18:10:00;;;;;;;5.60;2.60;;;;;;;6.49;61.57;97658.46;220541;1280;138106;-59
2022/02/06 18:15:04;;;;;;;4.90;2.20;;;;;;;6.50;61.39;97646.26;220466;1278;137933;-59
2022/02/06 18:20:08;;;;;;;13.20;8.40;;;;;;;6.52;61.46;97634.31;220427;1279;138191;-58
2022/02/06 18:25:15;;;;;;;13.10;7.10;;;;;;;6.67;62.04;97625.35;220043;1281;138596;-58
2022/02/06 18:30:19;;;;;;;4.20;2.50;;;;;;;6.79;61.63;97616.77;220132;1281;138213;-58
2022/02/06 18:35:22;;;;;;;4.70;2.30;;;;;;;6.76;61.37;97612.89;220346;1280;139556;-58
2022/02/06 18:40:26;;;;;;;4.70;2.00;;;;;;;6.73;61.46;97603.05;220404;1280;138734;-57
2022/02/06 18:45:29;;;;;;;3.30;1.80;;;;;;;6.70;61.25;97587.11;220099;1280;137980;-59
2022/02/06 18:50:32;;;;;;;73.90;54.50;;;;;;;6.69;61.68;97579.88;219844;1281;139013;-58
2022/02/06 18:55:35;;;;;;;10.60;5.40;;;;;;;6.84;62.16;97569.70;220293;1281;138596;-58
2022/02/06 19:00:39;;;;;;;4.60;2.10;;;;;;;6.94;61.54;97560.34;220377;1280;140079;-58
2022/02/06 19:05:42;;;;;;;4.40;2.10;;;;;;;6.92;61.14;97549.92;220453;1280;138493;-58
2022/02/06 19:10:46;;;;;;;2.70;1.80;;;;;;;6.85;61.21;97540.15;220086;1281;138437;-57
2022/02/06 19:15:49;;;;;;;4.30;2.00;;;;;;;6.82;61.33;97522.38;220353;1280;138100;-59
2022/02/06 19:20:52;;;;;;;3.10;1.70;;;;;;;6.81;61.35;97507.67;220134;1281;138311;-58
2022/02/06 19:26:02;;;;;;;38.90;23.10;;;;;;;6.79;61.42;97497.94;220200;1280;140351;-58
2022/02/06 19:31:08;;;;;;;4.90;3.00;;;;;;;6.92;61.48;97487.88;220452;1280;140913;-59
2022/02/06 19:36:18;;;;;;;3.50;1.80;;;;;;;6.97;61.06;97479.71;220337;1279;138361;-58
2022/02/06 19:41:23;;;;;;;2.70;1.60;;;;;;;6.92;60.81;97468.12;220626;1280;138665;-57
2022/02/06 19:46:28;;;;;;;3.70;1.30;;;;;;;6.85;60.78;97453.27;220376;1280;138747;-57
2022/02/06 19:51:32;;;;;;;2.30;1.30;;;;;;;6.83;60.82;97447.24;220445;1279;138530;-58
2022/02/06 19:56:35;;;;;;;3.20;1.50;;;;;;;6.80;60.71;97441.30;220671;1279;138724;-60
2022/02/06 20:01:38;;;;;;;1.80;1.30;;;;;;;6.79;60.63;97441.89;220433;1280;138064;-59
2022/02/06 20:06:41;;;;;;;4.30;1.70;;;;;;;6.78;60.67;97429.64;219880;1281;137994;-59
2022/02/06 20:11:44;;;;;;;2.50;1.50;;;;;;;6.80;60.77;97420.17;220306;1281;138285;-60
2022/02/06 20:16:47;;;;;;;3.30;1.40;;;;;;;6.81;60.55;97396.06;220572;1280;138823;-59
2022/02/06 20:21:50;;;;;;;2.10;1.30;;;;;;;6.80;60.65;97391.04;220283;1280;138453;-58
2022/02/06 20:26:53;;;;;;;2.50;1.60;;;;;;;6.76;60.49;97382.19;220620;1280;138349;-57
2022/02/06 20:31:58;;;;;;;2.50;1.40;;;;;;;6.69;60.73;97367.88;220394;1279;139229;-58
2022/02/06 20:37:03;;;;;;;1.80;1.40;;;;;;;6.65;60.66;97360.77;220251;1281;138377;-59
2022/02/06 20:42:06;;;;;;;2.10;1.40;;;;;;;6.62;60.90;97338.42;220494;1279;138550;-59
2022/02/06 20:47:10;;;;;;;4.00;1.30;;;;;;;6.63;61.10;97331.02;220613;1280;138120;-60
2022/02/06 20:52:14;;;;;;;2.30;1.40;;;;;;;6.64;61.04;97321.02;220176;1280;138119;-61
2022/02/06 20:57:18;;;;;;;2.30;1.10;;;;;;;6.62;61.01;97301.77;220278;1280;138146;-63
2022/02/06 21:02:21;;;;;;;2.70;1.20;;;;;;;6.59;61.11;97300.41;220009;1281;138762;-60
2022/02/06 21:07:24;;;;;;;2.70;1.30;;;;;;;6.57;61.05;97297.45;219913;1281;137741;-60
2022/02/06 21:12:32;;;;;;;2.20;1.20;;;;;;;6.54;61.06;97287.08;220529;1279;139485;-62
2022/02/06 21:17:35;;;;;;;2.60;1.30;;;;;;;6.51;61.05;97286.94;220595;1279;139048;-62
2022/02/06 21:22:43;;;;;;;3.70;1.40;;;;;;;6.51;61.09;97271.78;220754;1280;139465;-61
2022/02/06 21:27:46;;;;;;;2.50;1.50;;;;;;;6.52;61.48;97265.38;220487;1280;138563;-60
2022/02/06 21:32:49;;;;;;;2.20;1.50;;;;;;;6.50;61.42;97265.15;220542;1279;138704;-61
2022/02/06 21:37:52;;;;;;;4.60;1.20;;;;;;;6.48;61.83;97254.95;220116;1281;138662;-60
2022/02/06 21:42:55;;;;;;;2.10;1.50;;;;;;;6.45;61.91;97253.22;220385;1281;138515;-61
2022/02/06 21:47:59;;;;;;;2.30;1.30;;;;;;;6.39;62.45;97252.45;220455;1280;138081;-60
2022/02/06 21:53:03;;;;;;;2.20;1.10;;;;;;;6.28;62.62;97240.20;220816;1279;138405;-59
2022/02/06 21:58:06;;;;;;;1.10;0.90;;;;;;;6.20;63.30;97248.89;220521;1280;138208;-58
2022/02/06 22:03:11;;;;;;;2.00;0.90;;;;;;;6.14;63.60;97243.15;220320;1281;138786;-58
2022/02/06 22:08:34;;;;;;;2.00;0.90;;;;;;;6.12;63.86;97248.06;219988;1281;138623;-60
2022/02/06 22:24:28;;;;;;;1.40;1.00;;;;;;;5.94;64.94;97237.03;220679;1280;139140;-57
2022/02/06 22:29:31;;;;;;;0.90;0.70;;;;;;;5.89;65.03;97229.97;220673;1280;141048;-59
2022/02/06 22:34:35;;;;;;;2.90;1.20;;;;;;;5.85;65.22;97221.85;220440;1281;138669;-60
2022/02/06 22:39:38;;;;;;;1.80;0.80;;;;;;;5.77;65.23;97211.29;220404;1281;137736;-59
2022/02/06 22:44:41;;;;;;;2.00;0.90;;;;;;;5.77;65.30;97199.48;220384;1281;139233;-61
2022/02/06 22:49:44;;;;;;;1.60;1.00;;;;;;;5.78;65.42;97179.23;220736;1279;138156;-59
2022/02/06 22:54:48;;;;;;;1.40;0.80;;;;;;;5.76;65.76;97175.48;220481;1280;139257;-62
2022/02/06 22:59:51;;;;;;;2.80;1.00;;;;;;;5.78;65.89;97163.08;220424;1280;138515;-59
2022/02/06 23:04:56;;;;;;;1.80;0.90;;;;;;;5.82;65.68;97158.02;220478;1280;139185;-61
2022/02/06 23:09:59;;;;;;;2.70;1.30;;;;;;;5.86;65.48;97156.09;220447;1280;140358;-59
2022/02/06 23:15:06;;;;;;;3.90;1.00;;;;;;;5.88;65.71;97152.61;220566;1279;138366;-58
2022/02/06 23:20:11;;;;;;;1.30;0.80;;;;;;;5.89;65.40;97153.63;220650;1279;138459;-58
2022/02/06 23:25:17;;;;;;;1.70;0.90;;;;;;;5.92;65.14;97146.69;220832;1278;139284;-59
2022/02/06 23:30:20;;;;;;;1.80;0.90;;;;;;;5.94;65.51;97129.14;220546;1280;138466;-60
2022/02/06 23:35:23;;;;;;;0.90;0.60;;;;;;;5.98;65.30;97129.55;220634;1279;138422;-60
2022/02/06 23:40:27;;;;;;;1.50;0.80;;;;;;;6.01;65.27;97132.86;220578;1281;138441;-60
2022/02/06 23:45:36;;;;;;;1.40;0.90;;;;;;;6.04;65.27;97122.98;220356;1281;138925;-59
2022/02/06 23:50:45;;;;;;;1.30;0.70;;;;;;;6.12;65.06;97109.01;220399;1280;138652;-60
2022/02/06 23:56:26;;;;;;;1.30;0.60;;;;;;;6.18;64.76;97106.96;220595;1280;138923;-59
